Time;durP1;ratioP1;P1;durP2;ratioP2;P2;SDS_P1;SDS_P2;PMS_P1;PMS_P2;Temp;Humidity;BMP_temperature;BMP_pressure;BME280_temperature;BME280_humidity;BME280_pressure;Samples;Min_cycle;Max_cycle;Signal;HPM_P1;HPM_P2
2021/12/08 00:01:19;;;;;;;;;0.00;0.00;;;;;;;;5068330;28;45282;-84
2021/12/08 00:03:46;;;;;;;;;0.67;0.67;;;;;;;;5084182;28;46108;-84
2021/12/08 00:06:12;;;;;;;;;2.00;1.00;;;;;;;;5084602;28;45461;-84
2021/12/08 00:08:37;;;;;;;;;1.00;1.00;;;;;;;;5086331;28;45441;-84
2021/12/08 00:13:48;;;;;;;;;2.00;0.00;;;;;;;;5085963;28;45483;-83
2021/12/08 00:16:13;;;;;;;;;1.67;1.67;;;;;;;;5067355;28;45400;-83
2021/12/08 00:18:45;;;;;;;;;0.00;0.00;;;;;;;;5087141;28;45727;-84
2021/12/08 00:21:11;;;;;;;;;0.67;0.67;;;;;;;;5068016;28;45448;-84
2021/12/08 00:23:36;;;;;;;;;0.00;0.00;;;;;;;;5084906;28;46213;-84
2021/12/08 00:26:03;;;;;;;;;0.00;0.00;;;;;;;;5068816;28;45791;-84
2021/12/08 00:28:29;;;;;;;;;0.00;0.00;;;;;;;;5086157;28;45685;-84
2021/12/08 00:30:56;;;;;;;;;1.00;1.00;;;;;;;;5067913;28;45436;-84
2021/12/08 00:33:21;;;;;;;;;0.67;0.00;;;;;;;;5068168;28;47238;-84
2021/12/08 00:35:48;;;;;;;;;0.00;0.00;;;;;;;;5087077;28;45352;-84
2021/12/08 00:38:17;;;;;;;;;1.33;0.33;;;;;;;;5087720;28;45373;-84
2021/12/08 00:40:43;;;;;;;;;0.00;0.00;;;;;;;;5065082;28;45694;-84
2021/12/08 00:43:09;;;;;;;;;1.00;1.00;;;;;;;;5065800;28;47152;-84
2021/12/08 00:45:35;;;;;;;;;1.00;1.00;;;;;;;;5064058;28;45373;-84
2021/12/08 00:48:01;;;;;;;;;1.00;1.00;;;;;;;;5064170;28;45320;-84
2021/12/08 00:53:31;;;;;;;;;0.00;0.00;;;;;;;;5066059;28;46249;-83
2021/12/08 00:55:56;;;;;;;;;0.00;0.00;;;;;;;;5067190;28;45757;-83
2021/12/08 00:58:21;;;;;;;;;0.00;0.00;;;;;;;;5067035;28;45441;-84
2021/12/08 01:00:49;;;;;;;;;2.00;0.00;;;;;;;;5064047;28;45443;-84
2021/12/08 01:03:16;;;;;;;;;0.00;0.00;;;;;;;;5065758;28;45405;-84
2021/12/08 01:05:47;;;;;;;;;0.33;0.33;;;;;;;;5065497;28;45757;-84
2021/12/08 01:08:13;;;;;;;;;0.33;0.33;;;;;;;;5065889;28;45520;-84
2021/12/08 01:10:40;;;;;;;;;0.00;0.00;;;;;;;;5065771;28;45295;-84
2021/12/08 01:13:08;;;;;;;;;0.00;0.00;;;;;;;;5063738;28;46708;-84
2021/12/08 01:15:34;;;;;;;;;2.00;0.00;;;;;;;;5066473;28;45456;-84
2021/12/08 01:17:59;;;;;;;;;1.00;1.00;;;;;;;;5065907;28;45378;-84
2021/12/08 01:20:25;;;;;;;;;0.00;0.00;;;;;;;;5064642;28;45274;-84
2021/12/08 01:22:50;;;;;;;;;1.00;1.00;;;;;;;;5065276;28;47099;-85
2021/12/08 01:25:15;;;;;;;;;0.00;0.00;;;;;;;;5063652;28;45282;-84
2021/12/08 01:27:41;;;;;;;;;0.00;0.00;;;;;;;;5063466;28;45697;-84
2021/12/08 01:30:08;;;;;;;;;0.00;0.00;;;;;;;;5066341;28;45470;-84
2021/12/08 01:32:34;;;;;;;;;0.00;0.00;;;;;;;;5063819;28;45515;-84
2021/12/08 01:34:59;;;;;;;;;0.00;0.00;;;;;;;;5061466;28;45858;-84
2021/12/08 01:37:24;;;;;;;;;0.67;0.67;;;;;;;;5063674;28;45556;-83
2021/12/08 01:39:50;;;;;;;;;0.00;0.00;;;;;;;;5059289;28;45466;-84
2021/12/08 01:42:27;;;;;;;;;0.00;0.00;;;;;;;;5061739;28;47169;-84
2021/12/08 01:47:36;;;;;;;;;0.33;0.33;;;;;;;;5065244;28;45844;-84
2021/12/08 01:50:03;;;;;;;;;0.33;0.33;;;;;;;;5065585;28;45430;-84
2021/12/08 01:52:28;;;;;;;;;0.33;0.33;;;;;;;;5065866;28;45575;-84
2021/12/08 01:54:55;;;;;;;;;0.00;0.00;;;;;;;;5046795;28;45413;-85
2021/12/08 01:57:20;;;;;;;;;0.00;0.00;;;;;;;;5045252;28;45501;-84
2021/12/08 01:59:46;;;;;;;;;0.00;0.00;;;;;;;;5044188;28;45366;-84
2021/12/08 02:02:11;;;;;;;;;0.00;0.00;;;;;;;;5042948;28;48108;-84
2021/12/08 02:04:36;;;;;;;;;1.00;1.00;;;;;;;;5042495;28;45827;-84
2021/12/08 02:07:02;;;;;;;;;0.00;0.00;;;;;;;;5043594;28;45381;-84
2021/12/08 02:09:27;;;;;;;;;0.00;0.00;;;;;;;;5043166;28;45385;-84
2021/12/08 02:11:55;;;;;;;;;0.00;0.00;;;;;;;;5040539;28;48180;-84
2021/12/08 02:14:20;;;;;;;;;1.00;1.00;;;;;;;;5040824;28;45420;-84
2021/12/08 02:16:46;;;;;;;;;2.67;0.00;;;;;;;;5043442;28;45488;-84
2021/12/08 02:19:12;;;;;;;;;2.00;1.00;;;;;;;;5041362;28;45511;-84
2021/12/08 02:21:39;;;;;;;;;1.00;1.00;;;;;;;;5043189;28;47458;-84
2021/12/08 02:24:14;;;;;;;;;0.00;0.00;;;;;;;;5043754;28;45428;-84
2021/12/08 02:26:40;;;;;;;;;3.00;1.00;;;;;;;;5042927;28;45386;-83
2021/12/08 02:29:09;;;;;;;;;0.00;0.00;;;;;;;;5043227;28;45886;-84
2021/12/08 02:31:56;;;;;;;;;1.00;1.00;;;;;;;;5042898;28;46762;-83
2021/12/08 02:48:02;;;;;;;;;0.00;0.00;;;;;;;;5087178;28;45715;-83
2021/12/08 02:50:32;;;;;;;;;0.00;0.00;;;;;;;;5088043;28;45668;-84
2021/12/08 02:52:59;;;;;;;;;3.00;2.00;;;;;;;;5088205;28;46131;-83
2021/12/08 02:55:24;;;;;;;;;1.00;1.00;;;;;;;;5088040;28;45415;-84
2021/12/08 02:57:50;;;;;;;;;0.33;0.00;;;;;;;;5070584;28;45549;-84
2021/12/08 03:00:23;;;;;;;;;1.00;1.00;;;;;;;;5069536;28;45472;-84
2021/12/08 03:02:49;;;;;;;;;0.00;0.00;;;;;;;;5087886;28;45677;-84
2021/12/08 03:05:14;;;;;;;;;0.33;0.33;;;;;;;;5069898;28;45389;-84
2021/12/08 03:07:39;;;;;;;;;1.00;0.00;;;;;;;;5087314;28;44793;-84
2021/12/08 03:10:10;;;;;;;;;2.67;1.00;;;;;;;;5086412;28;45318;-83
2021/12/08 03:12:35;;;;;;;;;0.00;0.00;;;;;;;;5085764;28;45480;-84
2021/12/08 03:15:00;;;;;;;;;0.00;0.00;;;;;;;;5086982;28;45464;-84
2021/12/08 03:17:26;;;;;;;;;0.00;0.00;;;;;;;;5071005;28;45515;-84
2021/12/08 03:19:51;;;;;;;;;0.00;0.00;;;;;;;;5087491;28;45739;-84
2021/12/08 03:22:18;;;;;;;;;1.67;0.00;;;;;;;;5067917;28;48157;-84
2021/12/08 03:24:46;;;;;;;;;1.00;1.00;;;;;;;;5087232;28;45364;-84
2021/12/08 03:27:15;;;;;;;;;3.00;1.00;;;;;;;;5068208;28;45770;-83
2021/12/08 03:29:50;;;;;;;;;1.00;1.00;;;;;;;;5067831;28;45500;-84
2021/12/08 03:32:18;;;;;;;;;0.00;0.00;;;;;;;;5068205;27;48472;-83
2021/12/08 03:34:53;;;;;;;;;1.00;0.00;;;;;;;;5087232;28;45416;-84
2021/12/08 03:37:24;;;;;;;;;0.00;0.00;;;;;;;;5086673;28;45478;-84
2021/12/08 03:39:50;;;;;;;;;0.00;0.00;;;;;;;;5067726;28;45568;-84
2021/12/08 03:42:25;;;;;;;;;0.67;0.67;;;;;;;;5084178;28;46159;-84
2021/12/08 03:44:54;;;;;;;;;0.00;0.00;;;;;;;;5068349;28;45444;-84
2021/12/08 03:47:28;;;;;;;;;0.67;0.67;;;;;;;;5069552;28;45342;-84
2021/12/08 03:49:55;;;;;;;;;1.00;1.00;;;;;;;;5069843;28;45413;-84
2021/12/08 03:52:20;;;;;;;;;1.00;1.00;;;;;;;;5069729;28;48030;-84
2021/12/08 03:54:45;;;;;;;;;0.00;0.00;;;;;;;;5070470;28;45402;-84
2021/12/08 03:57:10;;;;;;;;;0.00;0.00;;;;;;;;5070727;28;45354;-84
2021/12/08 03:59:36;;;;;;;;;1.67;0.33;;;;;;;;5089355;28;45372;-83
2021/12/08 04:02:02;;;;;;;;;0.00;0.00;;;;;;;;5088276;28;45706;-83
2021/12/08 04:04:29;;;;;;;;;1.00;0.00;;;;;;;;5069465;28;45418;-83
2021/12/08 04:06:56;;;;;;;;;2.33;0.00;;;;;;;;5086631;28;44827;-83
2021/12/08 04:09:38;;;;;;;;;2.00;0.00;;;;;;;;5070547;28;45537;-83
2021/12/08 04:12:05;;;;;;;;;0.00;0.00;;;;;;;;5070496;28;47005;-84
2021/12/08 04:14:32;;;;;;;;;1.33;0.33;;;;;;;;5089470;27;45418;-83
2021/12/08 04:17:03;;;;;;;;;1.00;1.00;;;;;;;;5068876;28;45269;-84
2021/12/08 04:19:29;;;;;;;;;0.00;0.00;;;;;;;;5069086;28;44892;-84
2021/12/08 04:21:56;;;;;;;;;1.00;1.00;;;;;;;;5085975;28;46181;-84
2021/12/08 04:24:22;;;;;;;;;0.67;0.67;;;;;;;;5085657;28;45463;-84
2021/12/08 04:26:57;;;;;;;;;0.00;0.00;;;;;;;;5068680;28;45534;-84
2021/12/08 04:29:26;;;;;;;;;0.00;0.00;;;;;;;;5070077;28;45386;-84
2021/12/08 04:31:52;;;;;;;;;0.00;0.00;;;;;;;;5086781;28;45597;-83
2021/12/08 04:34:23;;;;;;;;;0.00;0.00;;;;;;;;5067843;28;45806;-84
2021/12/08 04:36:50;;;;;;;;;1.00;1.00;;;;;;;;5085691;28;45801;-84
2021/12/08 04:39:21;;;;;;;;;1.00;1.00;;;;;;;;5067343;28;45346;-84
2021/12/08 04:42:05;;;;;;;;;1.33;0.67;;;;;;;;5076205;28;45576;-83
2021/12/08 04:44:45;;;;;;;;;2.67;0.67;;;;;;;;5045341;28;45390;-84
2021/12/08 04:47:34;;;;;;;;;1.00;1.00;;;;;;;;5044979;28;45413;-84
2021/12/08 05:08:40;;;;;;;;;3.00;1.00;;;;;;;;5048046;28;45425;-84
2021/12/08 05:11:07;;;;;;;;;3.00;0.00;;;;;;;;5014730;28;44782;-84
2021/12/08 05:13:32;;;;;;;;;0.00;0.00;;;;;;;;5049250;28;45696;-84
2021/12/08 05:15:57;;;;;;;;;2.00;2.00;;;;;;;;5047609;28;45350;-84
2021/12/08 05:21:29;;;;;;;;;2.00;2.00;;;;;;;;5047651;28;45377;-84
2021/12/08 05:24:03;;;;;;;;;2.33;2.00;;;;;;;;5046042;28;47270;-84
2021/12/08 05:26:37;;;;;;;;;2.00;2.00;;;;;;;;5046594;28;45620;-84
2021/12/08 05:29:15;;;;;;;;;2.00;1.67;;;;;;;;5045278;28;45423;-84
2021/12/08 05:31:41;;;;;;;;;3.00;2.00;;;;;;;;5046329;28;45861;-82
2021/12/08 05:34:07;;;;;;;;;9.00;5.00;;;;;;;;5044911;28;47218;-84
2021/12/08 05:36:32;;;;;;;;;3.00;3.00;;;;;;;;5046850;28;45434;-83
2021/12/08 05:38:58;;;;;;;;;1.67;1.33;;;;;;;;5046306;28;45832;-84
2021/12/08 05:41:28;;;;;;;;;2.33;1.00;;;;;;;;5048024;28;45422;-84
2021/12/08 05:43:54;;;;;;;;;2.33;1.33;;;;;;;;5061753;28;46967;-83
2021/12/08 05:46:20;;;;;;;;;1.00;1.00;;;;;;;;5056460;28;45507;-83
2021/12/08 05:48:47;;;;;;;;;2.00;2.00;;;;;;;;5025056;28;45465;-84
2021/12/08 05:51:26;;;;;;;;;1.00;1.00;;;;;;;;5024266;28;45490;-84
2021/12/08 05:53:53;;;;;;;;;1.00;1.00;;;;;;;;5022794;28;46794;-83
2021/12/08 05:56:19;;;;;;;;;3.67;2.00;;;;;;;;5025483;28;45402;-84
2021/12/08 05:58:45;;;;;;;;;1.00;1.00;;;;;;;;5008389;28;45545;-84
2021/12/08 06:01:31;;;;;;;;;1.00;1.00;;;;;;;;5026349;28;45506;-84
2021/12/08 06:03:56;;;;;;;;;2.67;2.00;;;;;;;;5026371;28;45537;-84
2021/12/08 06:06:23;;;;;;;;;1.00;1.00;;;;;;;;5025340;28;45714;-84
2021/12/08 06:08:49;;;;;;;;;1.00;1.00;;;;;;;;5023931;28;45572;-84
2021/12/08 06:11:15;;;;;;;;;2.00;0.33;;;;;;;;5025822;28;45430;-84
2021/12/08 06:13:42;;;;;;;;;2.00;2.00;;;;;;;;5026393;28;45377;-84
2021/12/08 06:16:08;;;;;;;;;1.00;1.00;;;;;;;;5026205;28;45459;-85
2021/12/08 06:18:38;;;;;;;;;0.33;0.33;;;;;;;;5025160;28;45500;-84
2021/12/08 06:24:10;;;;;;;;;1.00;1.00;;;;;;;;5025407;28;45471;-84
2021/12/08 06:26:35;;;;;;;;;0.67;0.67;;;;;;;;5025867;28;45413;-84
2021/12/08 06:29:01;;;;;;;;;1.00;1.00;;;;;;;;5023203;28;45323;-84
2021/12/08 06:31:28;;;;;;;;;2.33;1.00;;;;;;;;5024571;28;45220;-84
2021/12/08 06:33:54;;;;;;;;;3.00;2.33;;;;;;;;5025256;28;45550;-84
2021/12/08 06:36:23;;;;;;;;;1.00;1.00;;;;;;;;5024113;28;45379;-84
2021/12/08 06:38:49;;;;;;;;;1.33;0.00;;;;;;;;5026174;28;45491;-85
2021/12/08 06:41:17;;;;;;;;;1.00;1.00;;;;;;;;5027311;28;44814;-84
2021/12/08 06:43:58;;;;;;;;;2.00;2.00;;;;;;;;5053302;28;45366;-85
2021/12/08 06:46:24;;;;;;;;;0.00;0.00;;;;;;;;5047532;28;45853;-85
2021/12/08 06:48:55;;;;;;;;;0.33;0.33;;;;;;;;5047811;28;45461;-85
2021/12/08 06:51:22;;;;;;;;;0.67;0.00;;;;;;;;5048533;28;45667;-84
2021/12/08 06:53:50;;;;;;;;;1.33;1.00;;;;;;;;5048864;28;47832;-84
2021/12/08 06:56:18;;;;;;;;;1.00;1.00;;;;;;;;5047483;28;45401;-84
2021/12/08 06:58:47;;;;;;;;;1.00;0.00;;;;;;;;5067202;28;45494;-84
2021/12/08 07:02:04;;;;;;;;;1.00;0.00;;;;;;;;5048377;28;45595;-85
2021/12/08 07:07:09;;;;;;;;;2.00;2.00;;;;;;;;5065641;28;45356;-84
2021/12/08 07:09:34;;;;;;;;;1.00;1.00;;;;;;;;5048405;28;45457;-83
2021/12/08 07:12:01;;;;;;;;;0.67;0.67;;;;;;;;5046453;28;44933;-83
2021/12/08 07:14:28;;;;;;;;;3.00;3.00;;;;;;;;5065303;28;44997;-84
2021/12/08 07:16:54;;;;;;;;;3.67;1.00;;;;;;;;5048244;28;45460;-84
2021/12/08 07:19:27;;;;;;;;;1.00;1.00;;;;;;;;5067417;28;45782;-83
2021/12/08 07:21:54;;;;;;;;;1.00;1.00;;;;;;;;5068509;28;44903;-83
2021/12/08 07:24:24;;;;;;;;;2.67;2.67;;;;;;;;5049540;28;47546;-83
2021/12/08 07:26:52;;;;;;;;;2.33;2.33;;;;;;;;5053332;28;45473;-82
2021/12/08 07:29:21;;;;;;;;;1.33;0.67;;;;;;;;5055947;28;45433;-83
2021/12/08 07:31:52;;;;;;;;;2.00;2.00;;;;;;;;5059799;28;45423;-85
2021/12/08 07:34:19;;;;;;;;;2.00;2.00;;;;;;;;5073075;28;45486;-85
2021/12/08 07:36:49;;;;;;;;;1.00;0.00;;;;;;;;5072812;28;44809;-85
2021/12/08 07:39:18;;;;;;;;;2.00;2.00;;;;;;;;5055242;28;45765;-85
2021/12/08 07:41:48;;;;;;;;;4.00;1.00;;;;;;;;5074112;28;45858;-85
2021/12/08 07:44:14;;;;;;;;;1.00;1.00;;;;;;;;5073634;27;45417;-85
2021/12/08 07:46:42;;;;;;;;;3.00;3.00;;;;;;;;5073109;28;45448;-83
2021/12/08 07:49:09;;;;;;;;;11.33;10.00;;;;;;;;5074138;28;45420;-84
2021/12/08 07:51:37;;;;;;;;;5.00;3.00;;;;;;;;5073650;28;45431;-84
2021/12/08 07:54:11;;;;;;;;;2.00;2.00;;;;;;;;5075297;28;47073;-84
2021/12/08 07:59:41;;;;;;;;;1.00;1.00;;;;;;;;5090651;28;45467;-85
2021/12/08 08:02:09;;;;;;;;;2.00;2.00;;;;;;;;5091670;28;45849;-83
2021/12/08 08:04:37;;;;;;;;;2.00;2.00;;;;;;;;5091511;28;45577;-84
2021/12/08 08:07:21;;;;;;;;;1.00;1.00;;;;;;;;5074757;28;45438;-87
2021/12/08 08:10:16;;;;;;;;;1.00;1.00;;;;;;;;5073482;28;45573;-88
2021/12/08 08:12:47;;;;;;;;;3.33;1.00;;;;;;;;5074053;28;45785;-85
2021/12/08 08:18:20;;;;;;;;;2.00;2.00;;;;;;;;5095429;27;45339;-86
2021/12/08 08:20:49;;;;;;;;;2.00;1.67;;;;;;;;5074540;28;45430;-87
2021/12/08 08:23:16;;;;;;;;;3.33;3.33;;;;;;;;5091431;28;45432;-87
2021/12/08 08:25:43;;;;;;;;;4.33;4.33;;;;;;;;5065659;28;47140;-88
2021/12/08 08:28:13;;;;;;;;;6.00;3.67;;;;;;;;5073785;28;45760;-86
2021/12/08 08:30:41;;;;;;;;;3.33;3.33;;;;;;;;5075075;28;45453;-85
2021/12/08 08:33:48;;;;;;;;;5.67;4.00;;;;;;;;5471345;22;45531;-84
2021/12/08 08:36:48;;;;;;;;;5.00;3.33;;;;;;;;4993093;28;45485;-85
2021/12/08 08:39:59;;;;;;;;;2.00;1.00;;;;;;;;4985356;28;45932;-86
2021/12/08 08:42:36;;;;;;;;;0.67;0.67;;;;;;;;4935667;28;45512;-85
2021/12/08 08:45:22;;;;;;;;;2.00;2.00;;;;;;;;4952596;28;44882;-84
2021/12/08 08:47:57;;;;;;;;;3.00;2.00;;;;;;;;4952474;28;46344;-84
2021/12/08 08:50:29;;;;;;;;;4.33;2.33;;;;;;;;4953595;28;45467;-85
2021/12/08 08:52:55;;;;;;;;;2.00;2.00;;;;;;;;4952674;28;44848;-87
2021/12/08 08:55:33;;;;;;;;;3.33;3.33;;;;;;;;4951681;28;45457;-84
2021/12/08 08:58:02;;;;;;;;;1.00;1.00;;;;;;;;4950527;28;47665;-83
2021/12/08 09:00:50;;;;;;;;;2.00;2.00;;;;;;;;4935097;28;45322;-85
2021/12/08 09:03:18;;;;;;;;;2.67;1.00;;;;;;;;4939886;28;45383;-83
2021/12/08 09:05:47;;;;;;;;;5.33;3.00;;;;;;;;4933231;28;44758;-85
2021/12/08 09:08:43;;;;;;;;;9.67;3.00;;;;;;;;4932047;28;45894;-87
2021/12/08 09:11:21;;;;;;;;;5.67;3.00;;;;;;;;4946763;28;45585;-86
2021/12/08 09:13:52;;;;;;;;;5.33;1.67;;;;;;;;4975890;28;45316;-85
2021/12/08 09:16:19;;;;;;;;;2.00;2.00;;;;;;;;4990331;28;44807;-84
2021/12/08 09:18:57;;;;;;;;;5.00;1.00;;;;;;;;5010358;28;45447;-86
2021/12/08 09:24:36;;;;;;;;;6.00;2.67;;;;;;;;5053562;28;44794;-85
2021/12/08 09:27:13;;;;;;;;;6.67;3.67;;;;;;;;5051425;28;45458;-86
2021/12/08 09:29:44;;;;;;;;;6.00;3.00;;;;;;;;5013297;28;45417;-85
2021/12/08 09:32:22;;;;;;;;;1.33;0.67;;;;;;;;5031030;28;45508;-84
2021/12/08 09:34:57;;;;;;;;;1.00;1.00;;;;;;;;5034169;28;45394;-84
2021/12/08 09:37:23;;;;;;;;;1.00;1.00;;;;;;;;5013793;28;44947;-83
2021/12/08 09:39:54;;;;;;;;;3.33;1.33;;;;;;;;5035774;28;45495;-83
2021/12/08 09:42:19;;;;;;;;;1.00;1.00;;;;;;;;5044062;28;45421;-84
2021/12/08 09:45:23;;;;;;;;;2.00;2.00;;;;;;;;5032030;28;45440;-84
2021/12/08 09:47:50;;;;;;;;;5.33;1.67;;;;;;;;5030705;28;45525;-85
2021/12/08 09:50:18;;;;;;;;;4.67;2.33;;;;;;;;5013879;28;47225;-85
2021/12/08 09:59:01;;;;;;;;;1.00;1.00;;;;;;;;5035242;28;45366;-83
2021/12/08 10:01:28;;;;;;;;;1.00;1.00;;;;;;;;5013160;28;47931;-84
2021/12/08 10:03:54;;;;;;;;;1.00;1.00;;;;;;;;5018543;28;45429;-84
2021/12/08 10:06:22;;;;;;;;;3.00;3.00;;;;;;;;5030293;28;44833;-83
2021/12/08 10:09:20;;;;;;;;;3.00;3.00;;;;;;;;5031467;28;44932;-86
2021/12/08 10:17:52;;;;;;;;;3.00;3.00;;;;;;;;5043800;28;44710;-86
2021/12/08 10:20:44;;;;;;;;;2.67;2.67;;;;;;;;5001180;28;44784;-84
2021/12/08 10:26:17;;;;;;;;;2.67;1.00;;;;;;;;5038078;28;45496;-84
2021/12/08 10:31:53;;;;;;;;;0.67;0.00;;;;;;;;5026706;28;45327;-86
2021/12/08 10:35:05;;;;;;;;;0.00;0.00;;;;;;;;4997838;28;45496;-84
2021/12/08 10:38:19;;;;;;;;;;;;;;;;;;;;;
2021/12/08 10:46:58;;;;;;;;;0.33;0.33;;;;;;;;4989760;28;45380;-83
2021/12/08 10:55:29;;;;;;;;;1.33;1.33;;;;;;;;4974469;28;45570;-83
2021/12/08 10:57:55;;;;;;;;;2.00;2.00;;;;;;;;4978080;28;46546;-84
2021/12/08 11:00:21;;;;;;;;;1.67;1.67;;;;;;;;4971319;28;45460;-83
2021/12/08 11:05:54;;;;;;;;;2.67;2.67;;;;;;;;4929422;28;44896;-86
2021/12/08 11:11:27;;;;;;;;;5.00;2.33;;;;;;;;5023514;28;45216;-85
2021/12/08 11:26:18;;;;;;;;;2.00;2.00;;;;;;;;4953420;28;45440;-83
2021/12/08 11:28:45;;;;;;;;;4.33;4.33;;;;;;;;4937232;28;45384;-84
2021/12/08 11:31:12;;;;;;;;;1.00;1.00;;;;;;;;4953492;28;45637;-85
2021/12/08 11:33:42;;;;;;;;;1.00;1.00;;;;;;;;4960809;28;44848;-84
2021/12/08 11:46:28;;;;;;;;;3.67;2.00;;;;;;;;4951111;28;45439;-86
2021/12/08 11:49:03;;;;;;;;;4.33;4.33;;;;;;;;4960156;28;45420;-84
2021/12/08 11:51:31;;;;;;;;;2.33;2.33;;;;;;;;5017431;28;45615;-85
2021/12/08 11:53:59;;;;;;;;;2.00;2.00;;;;;;;;5035021;28;47034;-84
2021/12/08 11:56:33;;;;;;;;;6.00;3.00;;;;;;;;5006705;28;45296;-83
2021/12/08 11:58:59;;;;;;;;;2.33;1.67;;;;;;;;5017074;28;45446;-83
2021/12/08 12:01:24;;;;;;;;;0.00;0.00;;;;;;;;5019395;28;45418;-82
2021/12/08 12:04:03;;;;;;;;;;;;;;;;;;;;;
2021/12/08 12:06:29;;;;;;;;;0.00;0.00;;;;;;;;5019025;28;73236;-84
2021/12/08 12:08:55;;;;;;;;;1.67;1.67;;;;;;;;5031458;28;45574;-86
2021/12/08 12:11:52;;;;;;;;;2.33;2.33;;;;;;;;5031681;28;45676;-86
2021/12/08 12:14:56;;;;;;;;;;;;;;;;;;;;;
2021/12/08 12:17:54;;;;;;;;;1.00;1.00;;;;;;;;4986369;28;72075;-87
2021/12/08 12:20:38;;;;;;;;;2.00;2.00;;;;;;;;5056622;28;44825;-85
2021/12/08 12:23:03;;;;;;;;;2.00;2.00;;;;;;;;5034879;28;44876;-85
2021/12/08 12:25:33;;;;;;;;;1.00;1.00;;;;;;;;5050689;28;46899;-85
2021/12/08 12:31:21;;;;;;;;;0.33;0.33;;;;;;;;5051628;28;45286;-84
2021/12/08 12:33:49;;;;;;;;;2.00;1.00;;;;;;;;5034084;28;44803;-84
2021/12/08 12:36:32;;;;;;;;;1.00;1.00;;;;;;;;5034444;28;47290;-86
2021/12/08 12:39:09;;;;;;;;;0.00;0.00;;;;;;;;5052600;28;44718;-86
2021/12/08 12:41:38;;;;;;;;;0.67;0.67;;;;;;;;5049897;28;44989;-85
2021/12/08 12:50:29;;;;;;;;;3.00;3.00;;;;;;;;5051521;28;44876;-86
2021/12/08 12:52:56;;;;;;;;;1.00;1.00;;;;;;;;5031992;28;45518;-84
2021/12/08 12:55:23;;;;;;;;;0.00;0.00;;;;;;;;5015402;28;45755;-85
2021/12/08 12:58:04;;;;;;;;;1.33;1.33;;;;;;;;5020609;28;45439;-85
2021/12/08 13:00:49;;;;;;;;;2.00;0.33;;;;;;;;5014547;28;45469;-85
2021/12/08 13:03:34;;;;;;;;;1.00;1.00;;;;;;;;5032992;28;45505;-85
2021/12/08 13:06:00;;;;;;;;;1.67;1.33;;;;;;;;5024650;28;45528;-85
2021/12/08 13:08:33;;;;;;;;;1.67;1.67;;;;;;;;5025915;28;46904;-83
2021/12/08 13:11:00;;;;;;;;;2.00;2.00;;;;;;;;5022822;28;44857;-83
2021/12/08 13:13:26;;;;;;;;;3.00;1.67;;;;;;;;5023540;28;45467;-84
2021/12/08 13:15:51;;;;;;;;;2.00;2.00;;;;;;;;5043504;28;45818;-84
2021/12/08 13:18:18;;;;;;;;;1.00;1.00;;;;;;;;5024873;28;47453;-84
2021/12/08 13:20:54;;;;;;;;;0.00;0.00;;;;;;;;5026872;28;45398;-83
2021/12/08 13:23:22;;;;;;;;;0.33;0.33;;;;;;;;5044670;28;45637;-84
2021/12/08 13:26:06;;;;;;;;;2.00;2.00;;;;;;;;5027953;28;45461;-83
2021/12/08 13:28:37;;;;;;;;;2.33;1.33;;;;;;;;5026222;28;46959;-82
2021/12/08 13:31:19;;;;;;;;;2.00;2.00;;;;;;;;5042604;28;45900;-83
2021/12/08 13:33:55;;;;;;;;;3.00;2.00;;;;;;;;5001557;28;45524;-84
2021/12/08 13:36:20;;;;;;;;;3.67;3.33;;;;;;;;5039242;28;45590;-82
2021/12/08 13:38:49;;;;;;;;;2.67;0.67;;;;;;;;5023786;28;47492;-81
2021/12/08 13:41:16;;;;;;;;;0.00;0.00;;;;;;;;5025975;28;45755;-83
2021/12/08 13:43:43;;;;;;;;;0.00;0.00;;;;;;;;5022738;28;44761;-84
2021/12/08 13:46:10;;;;;;;;;2.00;2.00;;;;;;;;5025257;28;44858;-82
2021/12/08 13:48:36;;;;;;;;;0.00;0.00;;;;;;;;5028999;28;47063;-82
2021/12/08 13:51:17;;;;;;;;;1.00;1.00;;;;;;;;5018959;28;45454;-83
2021/12/08 13:53:51;;;;;;;;;0.67;0.67;;;;;;;;5024667;28;44864;-83
2021/12/08 13:56:16;;;;;;;;;2.33;2.00;;;;;;;;5032651;28;45284;-83
2021/12/08 13:58:42;;;;;;;;;0.67;0.67;;;;;;;;5025262;28;47143;-83
2021/12/08 14:01:14;;;;;;;;;0.33;0.33;;;;;;;;5025202;28;45463;-85
2021/12/08 14:03:42;;;;;;;;;0.00;0.00;;;;;;;;5029312;28;45785;-83
2021/12/08 14:06:08;;;;;;;;;2.00;1.67;;;;;;;;5039261;28;45426;-85
2021/12/08 14:08:34;;;;;;;;;0.67;0.67;;;;;;;;5029508;28;48075;-85
2021/12/08 14:11:06;;;;;;;;;0.67;0.00;;;;;;;;5044399;28;45406;-85
2021/12/08 14:13:36;;;;;;;;;1.00;1.00;;;;;;;;5019753;28;45689;-84
2021/12/08 14:16:06;;;;;;;;;1.33;1.33;;;;;;;;5024095;28;44907;-85
2021/12/08 14:18:34;;;;;;;;;1.33;1.33;;;;;;;;5020593;28;46037;-83
2021/12/08 14:21:16;;;;;;;;;1.00;1.00;;;;;;;;5020748;28;45547;-85
2021/12/08 14:23:51;;;;;;;;;2.00;1.00;;;;;;;;5038578;28;44816;-84
2021/12/08 14:26:18;;;;;;;;;0.00;0.00;;;;;;;;5024676;28;45445;-83
2021/12/08 14:28:54;;;;;;;;;1.67;1.00;;;;;;;;5026604;28;45306;-83
2021/12/08 14:31:24;;;;;;;;;6.00;2.33;;;;;;;;5021998;28;45476;-83
2021/12/08 14:37:11;;;;;;;;;1.00;1.00;;;;;;;;5038889;28;45457;-84
2021/12/08 14:39:39;;;;;;;;;0.00;0.00;;;;;;;;5024079;28;47590;-84
2021/12/08 14:42:08;;;;;;;;;1.00;1.00;;;;;;;;5020951;28;45604;-84
2021/12/08 14:44:41;;;;;;;;;2.00;2.00;;;;;;;;5024039;28;45411;-86
2021/12/08 14:47:11;;;;;;;;;1.00;1.00;;;;;;;;5026580;28;45681;-82
2021/12/08 14:49:42;;;;;;;;;0.33;0.33;;;;;;;;5022515;28;45451;-84
2021/12/08 14:52:29;;;;;;;;;1.00;1.00;;;;;;;;5020316;28;45461;-83
2021/12/08 15:01:00;;;;;;;;;1.00;1.00;;;;;;;;5042806;28;45899;-85
2021/12/08 15:03:37;;;;;;;;;1.00;1.00;;;;;;;;5000080;28;44868;-86
2021/12/08 15:06:05;;;;;;;;;1.67;1.67;;;;;;;;5000883;28;45700;-84
2021/12/08 15:08:37;;;;;;;;;0.33;0.00;;;;;;;;4974376;28;45512;-85
2021/12/08 15:11:02;;;;;;;;;0.33;0.33;;;;;;;;4992610;28;45404;-85
2021/12/08 15:13:30;;;;;;;;;2.67;1.33;;;;;;;;4978316;28;45416;-84
2021/12/08 15:15:56;;;;;;;;;1.33;1.33;;;;;;;;4987474;28;45483;-85
2021/12/08 15:18:24;;;;;;;;;3.00;3.00;;;;;;;;4986614;28;45493;-84
2021/12/08 15:21:23;;;;;;;;;3.00;1.00;;;;;;;;5004317;28;45180;-84
2021/12/08 15:24:00;;;;;;;;;4.67;2.00;;;;;;;;5007058;28;45800;-85
2021/12/08 15:26:26;;;;;;;;;3.33;2.00;;;;;;;;4983760;28;45554;-85
2021/12/08 15:28:51;;;;;;;;;3.00;2.33;;;;;;;;4990958;28;45530;-85
2021/12/08 15:31:26;;;;;;;;;1.00;1.00;;;;;;;;4984698;28;45469;-86
2021/12/08 15:36:57;;;;;;;;;2.33;2.33;;;;;;;;5000059;28;45036;-85
2021/12/08 15:39:40;;;;;;;;;;;;;;;;;;;;;
2021/12/08 15:42:07;;;;;;;;;1.67;1.67;;;;;;;;5020304;28;75633;-84
2021/12/08 15:44:34;;;;;;;;;1.67;1.67;;;;;;;;5028862;28;44849;-86
2021/12/08 15:47:04;;;;;;;;;2.00;2.00;;;;;;;;5027815;28;45806;-85
2021/12/08 15:49:32;;;;;;;;;5.00;2.00;;;;;;;;5030839;28;44927;-85
2021/12/08 15:52:02;;;;;;;;;4.33;4.33;;;;;;;;5030861;28;47127;-86
2021/12/08 15:54:27;;;;;;;;;4.33;3.00;;;;;;;;5034873;28;44852;-87
2021/12/08 15:57:27;;;;;;;;;3.00;3.00;;;;;;;;5033480;28;45218;-84
2021/12/08 16:03:11;;;;;;;;;6.00;6.00;;;;;;;;4990628;28;45450;-86
2021/12/08 16:05:37;;;;;;;;;8.00;6.00;;;;;;;;4976534;28;44890;-86
2021/12/08 16:08:03;;;;;;;;;6.67;3.67;;;;;;;;4991516;28;44942;-84
2021/12/08 16:10:30;;;;;;;;;4.67;4.33;;;;;;;;4987891;28;44928;-85
2021/12/08 16:16:10;;;;;;;;;;;;;;;;;;;;;
2021/12/08 16:18:54;;;;;;;;;2.00;2.00;;;;;;;;4991898;28;67779;-88
2021/12/08 16:22:16;;;;;;;;;2.33;2.33;;;;;;;;4978981;28;45587;-88
2021/12/08 16:24:35;;;;;;;;;5.00;3.00;;;;;;;;4988353;28;45648;-85
2021/12/08 16:27:02;;;;;;;;;2.67;2.67;;;;;;;;4974288;28;45459;-86
2021/12/08 16:29:32;;;;;;;;;2.00;2.00;;;;;;;;4975741;28;45495;-86
2021/12/08 16:32:00;;;;;;;;;6.00;6.00;;;;;;;;4961569;28;45370;-87
2021/12/08 16:34:26;;;;;;;;;6.33;5.00;;;;;;;;4978997;28;45849;-87
2021/12/08 16:36:53;;;;;;;;;12.67;8.00;;;;;;;;4957978;28;44877;-87
2021/12/08 16:39:26;;;;;;;;;10.00;7.33;;;;;;;;4974661;28;44901;-85
2021/12/08 16:44:39;;;;;;;;;7.00;6.00;;;;;;;;5005914;28;45560;-86
2021/12/08 16:47:04;;;;;;;;;5.00;5.00;;;;;;;;4991359;28;45334;-86
2021/12/08 16:49:36;;;;;;;;;6.00;5.67;;;;;;;;4974448;28;45241;-85
2021/12/08 16:52:02;;;;;;;;;6.00;6.00;;;;;;;;4991279;28;45461;-86
2021/12/08 16:54:30;;;;;;;;;8.00;7.00;;;;;;;;4977440;28;47196;-87
2021/12/08 16:56:58;;;;;;;;;6.67;6.67;;;;;;;;4998492;28;45367;-87
2021/12/08 16:59:23;;;;;;;;;7.00;7.00;;;;;;;;5009970;28;45529;-87
2021/12/08 17:02:24;;;;;;;;;;;;;;;;;;;;;
2021/12/08 17:04:50;;;;;;;;;8.33;6.67;;;;;;;;5032200;28;75348;-85
2021/12/08 17:07:16;;;;;;;;;6.00;6.00;;;;;;;;5014976;28;45378;-86
2021/12/08 17:09:42;;;;;;;;;9.33;9.33;;;;;;;;5014035;28;45463;-86
2021/12/08 17:15:11;;;;;;;;;10.00;7.00;;;;;;;;5030402;28;45182;-86
2021/12/08 17:17:36;;;;;;;;;8.00;8.00;;;;;;;;5013053;28;45990;-87
2021/12/08 17:20:03;;;;;;;;;11.00;10.00;;;;;;;;5012520;28;44820;-87
2021/12/08 17:22:29;;;;;;;;;12.67;12.67;;;;;;;;5014578;28;45889;-87
2021/12/08 17:24:54;;;;;;;;;10.00;10.00;;;;;;;;5031819;28;46823;-86
2021/12/08 17:27:20;;;;;;;;;15.33;11.00;;;;;;;;5029434;28;45621;-86
2021/12/08 17:29:45;;;;;;;;;8.67;7.67;;;;;;;;5013784;28;45430;-86
2021/12/08 17:32:12;;;;;;;;;12.00;12.00;;;;;;;;5013860;28;45422;-86
2021/12/08 17:37:48;;;;;;;;;15.67;11.00;;;;;;;;5047037;28;45375;-85
2021/12/08 17:40:13;;;;;;;;;8.00;8.00;;;;;;;;5035312;28;45412;-86
2021/12/08 17:42:42;;;;;;;;;11.67;10.00;;;;;;;;5050050;28;45272;-86
2021/12/08 17:45:08;;;;;;;;;9.67;9.67;;;;;;;;5050079;28;45471;-86